AAL1849 KLAX-KPHX
Flight info
| Callsign | AAL1849 |
|---|---|
| Flight time | 1h 4m |
| Altitude | 35000 |
| Route | DOTSS2 CNERY BLH HYDRR1 |
| Aircraft | B738/M-SDE2E3FGHIRWXY/LB1 |
Departure
| Time | 2026-05-05 17:48 |
|---|---|
| Airport | Los Angeles International Airport (KLAX) |
Arrival
| Time | 2026-05-05 18:53 |
|---|---|
| Airport | Phoenix Sky Harbor International Airport (KPHX) |
| Time | Latitude | Longitude | Altitude | Speed | Heading |
|---|---|---|---|---|---|
| 2026-05-05 17:24 | 33.94462 | -118.41138 | 125 ft | 0 kts | 83° |
| 2026-05-05 17:35 | 33.94461 | -118.41154 | 120 ft | 4 kts | 85° |
| 2026-05-05 17:36 | 33.94459 | -118.41187 | 121 ft | 4 kts | 91° |
| 2026-05-05 17:36 | 33.94461 | -118.41219 | 121 ft | 4 kts | 103° |
| 2026-05-05 17:36 | 33.94471 | -118.41247 | 123 ft | 4 kts | 142° |
| 2026-05-05 17:36 | 33.94480 | -118.41253 | 121 ft | 1 kts | 172° |
| 2026-05-05 17:39 | 33.94478 | -118.41253 | 125 ft | 1 kts | 172° |
| 2026-05-05 17:39 | 33.94462 | -118.41250 | 122 ft | 4 kts | 171° |
| 2026-05-05 17:40 | 33.94424 | -118.41241 | 123 ft | 9 kts | 171° |
| 2026-05-05 17:40 | 33.94344 | -118.41229 | 121 ft | 13 kts | 178° |
| 2026-05-05 17:40 | 33.94265 | -118.41243 | 122 ft | 11 kts | 214° |
| 2026-05-05 17:40 | 33.94213 | -118.41307 | 124 ft | 12 kts | 193° |
| 2026-05-05 17:41 | 33.94126 | -118.41299 | 123 ft | 14 kts | 173° |
| 2026-05-05 17:41 | 33.94025 | -118.41283 | 122 ft | 16 kts | 174° |
| 2026-05-05 17:41 | 33.93916 | -118.41268 | 123 ft | 16 kts | 172° |
| 2026-05-05 17:41 | 33.93818 | -118.41254 | 123 ft | 10 kts | 173° |
| 2026-05-05 17:42 | 33.93761 | -118.41202 | 125 ft | 12 kts | 103° |
| 2026-05-05 17:42 | 33.93768 | -118.41089 | 123 ft | 15 kts | 83° |
| 2026-05-05 17:42 | 33.93782 | -118.40954 | 123 ft | 18 kts | 83° |
| 2026-05-05 17:42 | 33.93798 | -118.40797 | 122 ft | 20 kts | 83° |
| 2026-05-05 17:43 | 33.93816 | -118.40621 | 125 ft | 22 kts | 83° |
| 2026-05-05 17:43 | 33.93837 | -118.40427 | 125 ft | 24 kts | 83° |
| 2026-05-05 17:43 | 33.93856 | -118.40230 | 125 ft | 23 kts | 83° |
| 2026-05-05 17:43 | 33.93875 | -118.40042 | 125 ft | 22 kts | 83° |
| 2026-05-05 17:44 | 33.93894 | -118.39860 | 122 ft | 22 kts | 83° |
| 2026-05-05 17:44 | 33.93913 | -118.39683 | 122 ft | 21 kts | 82° |
| 2026-05-05 17:44 | 33.93932 | -118.39511 | 125 ft | 20 kts | 85° |
| 2026-05-05 17:44 | 33.93947 | -118.39343 | 124 ft | 20 kts | 81° |
| 2026-05-05 17:45 | 33.93969 | -118.39184 | 121 ft | 19 kts | 80° |
| 2026-05-05 17:45 | 33.93980 | -118.39027 | 125 ft | 19 kts | 85° |
| 2026-05-05 17:45 | 33.93995 | -118.38875 | 125 ft | 18 kts | 82° |
| 2026-05-05 17:45 | 33.94009 | -118.38734 | 125 ft | 17 kts | 83° |
| 2026-05-05 17:46 | 33.94023 | -118.38598 | 125 ft | 16 kts | 83° |
| 2026-05-05 17:46 | 33.94036 | -118.38468 | 121 ft | 15 kts | 83° |
| 2026-05-05 17:46 | 33.94044 | -118.38379 | 125 ft | 7 kts | 91° |
| 2026-05-05 17:46 | 33.94015 | -118.38332 | 121 ft | 8 kts | 158° |
| 2026-05-05 17:47 | 33.93962 | -118.38337 | 125 ft | 8 kts | 216° |
| 2026-05-05 17:47 | 33.93946 | -118.38397 | 125 ft | 8 kts | 262° |
| 2026-05-05 17:47 | 33.93917 | -118.38677 | 125 ft | 70 kts | 263° |
| 2026-05-05 17:47 | 33.93829 | -118.39529 | 125 ft | 134 kts | 263° |
| 2026-05-05 17:48 | 33.93686 | -118.40844 | 243 ft | 179 kts | 262° |
| 2026-05-05 17:48 | 33.93536 | -118.42418 | 750 ft | 197 kts | 264° |
| 2026-05-05 17:48 | 33.93533 | -118.44120 | 1377 ft | 207 kts | 268° |
| 2026-05-05 17:48 | 33.93487 | -118.45930 | 1800 ft | 230 kts | 268° |
| 2026-05-05 17:49 | 33.93351 | -118.48025 | 1920 ft | 267 kts | 263° |
| 2026-05-05 17:49 | 33.93015 | -118.50248 | 2896 ft | 272 kts | 258° |
| 2026-05-05 17:49 | 33.92666 | -118.52556 | 3737 ft | 290 kts | 259° |
| 2026-05-05 17:49 | 33.92073 | -118.54905 | 3768 ft | 297 kts | 238° |
| 2026-05-05 17:50 | 33.90775 | -118.56802 | 3704 ft | 289 kts | 224° |
| 2026-05-05 17:50 | 33.88982 | -118.57685 | 3701 ft | 278 kts | 186° |
| 2026-05-05 17:50 | 33.87096 | -118.57578 | 3720 ft | 265 kts | 169° |
| 2026-05-05 17:50 | 33.85345 | -118.57005 | 4000 ft | 255 kts | 165° |
| 2026-05-05 17:51 | 33.83598 | -118.56431 | 4643 ft | 271 kts | 166° |
| 2026-05-05 17:51 | 33.81764 | -118.55857 | 5724 ft | 275 kts | 166° |
| 2026-05-05 17:51 | 33.79892 | -118.55275 | 6785 ft | 280 kts | 166° |
| 2026-05-05 17:51 | 33.77982 | -118.54678 | 7725 ft | 286 kts | 166° |
| 2026-05-05 17:52 | 33.76039 | -118.54068 | 8715 ft | 290 kts | 166° |
| 2026-05-05 17:52 | 33.74074 | -118.53451 | 9767 ft | 293 kts | 166° |
| 2026-05-05 17:52 | 33.72101 | -118.52828 | 10685 ft | 299 kts | 166° |
| 2026-05-05 17:52 | 33.70138 | -118.51734 | 10986 ft | 330 kts | 141° |
| 2026-05-05 17:53 | 33.68689 | -118.49489 | 11234 ft | 357 kts | 114° |
| 2026-05-05 17:53 | 33.67872 | -118.46583 | 11606 ft | 376 kts | 105° |
| 2026-05-05 17:53 | 33.67127 | -118.43558 | 12394 ft | 381 kts | 107° |
| 2026-05-05 17:53 | 33.66303 | -118.40527 | 12869 ft | 385 kts | 108° |
| 2026-05-05 17:54 | 33.65430 | -118.37526 | 12991 ft | 379 kts | 109° |
| 2026-05-05 17:54 | 33.64663 | -118.34443 | 13461 ft | 389 kts | 101° |
| 2026-05-05 17:54 | 33.64405 | -118.32315 | 14031 ft | 389 kts | 93° |
| 2026-05-05 17:54 | 33.64356 | -118.27997 | 15015 ft | 391 kts | 88° |
| 2026-05-05 17:55 | 33.64387 | -118.24717 | 15640 ft | 396 kts | 88° |
| 2026-05-05 17:55 | 33.64420 | -118.21395 | 16316 ft | 399 kts | 89° |
| 2026-05-05 17:55 | 33.64445 | -118.18050 | 16947 ft | 403 kts | 89° |
| 2026-05-05 17:55 | 33.64459 | -118.14675 | 17607 ft | 407 kts | 89° |
| 2026-05-05 17:56 | 33.64464 | -118.12426 | 18079 ft | 407 kts | 89° |
| 2026-05-05 17:56 | 33.64465 | -118.09001 | 18582 ft | 412 kts | 89° |
| 2026-05-05 17:56 | 33.64463 | -118.05553 | 19139 ft | 412 kts | 89° |
| 2026-05-05 17:56 | 33.64458 | -118.02102 | 19632 ft | 415 kts | 89° |
| 2026-05-05 17:57 | 33.64453 | -117.98618 | 20071 ft | 419 kts | 89° |
| 2026-05-05 17:57 | 33.64447 | -117.95112 | 20506 ft | 421 kts | 89° |
| 2026-05-05 17:57 | 33.64441 | -117.91571 | 20885 ft | 426 kts | 89° |
| 2026-05-05 17:57 | 33.64434 | -117.88015 | 21360 ft | 426 kts | 89° |
| 2026-05-05 17:58 | 33.64425 | -117.84454 | 21832 ft | 428 kts | 89° |
| 2026-05-05 17:58 | 33.64385 | -117.80856 | 22132 ft | 433 kts | 92° |
| 2026-05-05 17:58 | 33.63958 | -117.77280 | 22583 ft | 434 kts | 103° |
| 2026-05-05 17:58 | 33.63124 | -117.73790 | 23006 ft | 436 kts | 106° |
| 2026-05-05 17:59 | 33.62227 | -117.70289 | 23291 ft | 440 kts | 107° |
| 2026-05-05 17:59 | 33.61331 | -117.66811 | 23618 ft | 443 kts | 107° |
| 2026-05-05 17:59 | 33.60427 | -117.63266 | 23928 ft | 444 kts | 106° |
| 2026-05-05 17:59 | 33.59532 | -117.59710 | 24190 ft | 447 kts | 106° |
| 2026-05-05 18:00 | 33.58642 | -117.56134 | 24476 ft | 448 kts | 106° |
| 2026-05-05 18:00 | 33.57748 | -117.52529 | 24663 ft | 451 kts | 106° |
| 2026-05-05 18:00 | 33.56852 | -117.48911 | 24911 ft | 454 kts | 106° |
| 2026-05-05 18:00 | 33.55952 | -117.45276 | 25145 ft | 456 kts | 107° |
| 2026-05-05 18:01 | 33.55046 | -117.41623 | 25399 ft | 457 kts | 107° |
| 2026-05-05 18:01 | 33.54135 | -117.37964 | 25632 ft | 459 kts | 107° |
| 2026-05-05 18:01 | 33.53215 | -117.34273 | 25691 ft | 465 kts | 107° |
| 2026-05-05 18:01 | 33.52298 | -117.30596 | 25895 ft | 467 kts | 108° |
| 2026-05-05 18:02 | 33.51353 | -117.26814 | 26125 ft | 467 kts | 108° |
| 2026-05-05 18:02 | 33.50570 | -117.23027 | 26313 ft | 470 kts | 100° |
| 2026-05-05 18:02 | 33.50283 | -117.19178 | 26480 ft | 473 kts | 91° |
| 2026-05-05 18:02 | 33.50248 | -117.15220 | 26654 ft | 475 kts | 91° |
| 2026-05-05 18:03 | 33.50239 | -117.11250 | 26793 ft | 478 kts | 91° |
| 2026-05-05 18:03 | 33.50226 | -117.07259 | 26954 ft | 480 kts | 91° |
| 2026-05-05 18:03 | 33.50199 | -117.03258 | 27129 ft | 481 kts | 91° |
| 2026-05-05 18:03 | 33.50157 | -116.99244 | 27287 ft | 483 kts | 92° |
| 2026-05-05 18:04 | 33.50104 | -116.95208 | 27429 ft | 485 kts | 92° |
| 2026-05-05 18:04 | 33.50044 | -116.91162 | 27582 ft | 486 kts | 92° |
| 2026-05-05 18:04 | 33.49981 | -116.87107 | 27724 ft | 488 kts | 92° |
| 2026-05-05 18:04 | 33.49916 | -116.83030 | 27748 ft | 492 kts | 92° |
| 2026-05-05 18:05 | 33.49849 | -116.78915 | 27790 ft | 495 kts | 92° |
| 2026-05-05 18:05 | 33.49782 | -116.74778 | 27916 ft | 497 kts | 92° |
| 2026-05-05 18:05 | 33.49714 | -116.70626 | 28071 ft | 498 kts | 92° |
| 2026-05-05 18:05 | 33.49645 | -116.66533 | 28188 ft | 499 kts | 92° |
| 2026-05-05 18:06 | 33.49574 | -116.62366 | 28280 ft | 500 kts | 92° |
| 2026-05-05 18:06 | 33.49428 | -116.54001 | 28419 ft | 505 kts | 94° |
| 2026-05-05 18:07 | 33.49273 | -116.45532 | 28544 ft | 510 kts | 94° |
| 2026-05-05 18:07 | 33.49195 | -116.41289 | 28740 ft | 509 kts | 93° |
| 2026-05-05 18:07 | 33.49127 | -116.37047 | 28916 ft | 509 kts | 93° |
| 2026-05-05 18:07 | 33.49067 | -116.32801 | 29028 ft | 510 kts | 93° |
| 2026-05-05 18:08 | 33.49006 | -116.28544 | 29106 ft | 512 kts | 94° |
| 2026-05-05 18:08 | 33.48945 | -116.24303 | 29441 ft | 508 kts | 94° |
| 2026-05-05 18:08 | 33.48881 | -116.20057 | 29487 ft | 511 kts | 94° |
| 2026-05-05 18:08 | 33.48831 | -116.15919 | 30088 ft | 501 kts | 94° |
| 2026-05-05 18:09 | 33.48764 | -116.11763 | 30461 ft | 492 kts | 94° |
| 2026-05-05 18:09 | 33.48693 | -116.07710 | 30996 ft | 484 kts | 94° |
| 2026-05-05 18:09 | 33.48861 | -116.03625 | 31234 ft | 487 kts | 84° |
| 2026-05-05 18:09 | 33.49544 | -115.99705 | 31505 ft | 487 kts | 73° |
| 2026-05-05 18:10 | 33.50650 | -115.95879 | 31774 ft | 486 kts | 71° |
| 2026-05-05 18:10 | 33.53009 | -115.88198 | 31837 ft | 495 kts | 71° |
| 2026-05-05 18:11 | 33.55352 | -115.80368 | 31916 ft | 503 kts | 72° |
| 2026-05-05 18:11 | 33.56512 | -115.76402 | 32070 ft | 502 kts | 72° |
| 2026-05-05 18:11 | 33.57707 | -115.72479 | 32348 ft | 500 kts | 71° |
| 2026-05-05 18:11 | 33.58856 | -115.68532 | 32459 ft | 501 kts | 73° |
| 2026-05-05 18:12 | 33.59962 | -115.64576 | 32712 ft | 499 kts | 73° |
| 2026-05-05 18:12 | 33.61078 | -115.60632 | 32915 ft | 498 kts | 73° |
| 2026-05-05 18:12 | 33.62192 | -115.56687 | 33112 ft | 497 kts | 76° |
| 2026-05-05 18:12 | 33.62896 | -115.52737 | 33735 ft | 479 kts | 86° |
| 2026-05-05 18:13 | 33.63150 | -115.48834 | 34247 ft | 466 kts | 96° |
| 2026-05-05 18:13 | 33.62794 | -115.41075 | 34441 ft | 465 kts | 99° |
| 2026-05-05 18:14 | 33.62358 | -115.33313 | 34659 ft | 466 kts | 99° |
| 2026-05-05 18:14 | 33.62160 | -115.29423 | 34776 ft | 466 kts | 99° |
| 2026-05-05 18:14 | 33.61972 | -115.25541 | 34884 ft | 466 kts | 99° |
| 2026-05-05 18:15 | 33.61606 | -115.17737 | 34942 ft | 476 kts | 99° |
| 2026-05-05 18:15 | 33.61230 | -115.09716 | 34949 ft | 487 kts | 99° |
| 2026-05-05 18:16 | 33.60841 | -115.01506 | 34913 ft | 499 kts | 99° |
| 2026-05-05 18:16 | 33.60638 | -114.97295 | 34602 ft | 511 kts | 100° |
| 2026-05-05 18:16 | 33.60427 | -114.92990 | 34394 ft | 522 kts | 100° |
| 2026-05-05 18:16 | 33.60213 | -114.88597 | 34190 ft | 532 kts | 100° |
| 2026-05-05 18:17 | 33.59997 | -114.84131 | 33976 ft | 538 kts | 100° |
| 2026-05-05 18:17 | 33.59781 | -114.79656 | 33705 ft | 536 kts | 100° |
| 2026-05-05 18:17 | 33.59526 | -114.75212 | 33433 ft | 531 kts | 104° |
| 2026-05-05 18:17 | 33.58900 | -114.70888 | 33105 ft | 521 kts | 110° |
| 2026-05-05 18:18 | 33.58076 | -114.66697 | 32393 ft | 513 kts | 112° |
| 2026-05-05 18:18 | 33.57183 | -114.62587 | 31782 ft | 507 kts | 113° |
| 2026-05-05 18:18 | 33.56294 | -114.58520 | 31107 ft | 502 kts | 113° |
| 2026-05-05 18:18 | 33.55439 | -114.54485 | 30444 ft | 499 kts | 112° |
| 2026-05-05 18:19 | 33.54607 | -114.50418 | 29931 ft | 502 kts | 111° |
| 2026-05-05 18:19 | 33.53790 | -114.46327 | 29303 ft | 502 kts | 111° |
| 2026-05-05 18:19 | 33.53013 | -114.42347 | 28804 ft | 491 kts | 110° |
| 2026-05-05 18:19 | 33.52247 | -114.38395 | 28261 ft | 481 kts | 110° |
| 2026-05-05 18:20 | 33.51485 | -114.34485 | 27795 ft | 469 kts | 110° |
| 2026-05-05 18:20 | 33.50762 | -114.30791 | 27366 ft | 456 kts | 110° |
| 2026-05-05 18:20 | 33.50037 | -114.27127 | 26891 ft | 450 kts | 110° |
| 2026-05-05 18:20 | 33.49307 | -114.23471 | 26441 ft | 455 kts | 109° |
| 2026-05-05 18:21 | 33.48560 | -114.19734 | 25990 ft | 462 kts | 108° |
| 2026-05-05 18:21 | 33.47830 | -114.16043 | 25493 ft | 451 kts | 108° |
| 2026-05-05 18:21 | 33.47112 | -114.12392 | 25102 ft | 437 kts | 108° |
| 2026-05-05 18:21 | 33.46434 | -114.08963 | 24951 ft | 420 kts | 108° |
| 2026-05-05 18:22 | 33.45767 | -114.05614 | 24690 ft | 409 kts | 109° |
| 2026-05-05 18:22 | 33.45085 | -114.02245 | 24493 ft | 425 kts | 108° |
| 2026-05-05 18:22 | 33.44373 | -113.98735 | 24254 ft | 436 kts | 108° |
| 2026-05-05 18:22 | 33.43666 | -113.95216 | 23987 ft | 431 kts | 107° |
| 2026-05-05 18:23 | 33.42983 | -113.91799 | 23722 ft | 424 kts | 107° |
| 2026-05-05 18:23 | 33.42303 | -113.88397 | 23434 ft | 417 kts | 107° |
| 2026-05-05 18:23 | 33.41630 | -113.85046 | 23121 ft | 413 kts | 107° |
| 2026-05-05 18:23 | 33.40958 | -113.81706 | 22843 ft | 412 kts | 107° |
| 2026-05-05 18:24 | 33.40288 | -113.78387 | 22574 ft | 410 kts | 107° |
| 2026-05-05 18:24 | 33.39619 | -113.75074 | 22300 ft | 408 kts | 107° |
| 2026-05-05 18:24 | 33.38954 | -113.71783 | 22021 ft | 406 kts | 109° |
| 2026-05-05 18:24 | 33.38276 | -113.68446 | 21786 ft | 418 kts | 109° |
| 2026-05-05 18:25 | 33.37585 | -113.65055 | 21488 ft | 419 kts | 108° |
| 2026-05-05 18:25 | 33.37131 | -113.62816 | 21253 ft | 416 kts | 108° |
| 2026-05-05 18:25 | 33.36237 | -113.58397 | 20871 ft | 408 kts | 108° |
| 2026-05-05 18:25 | 33.35571 | -113.55121 | 20608 ft | 404 kts | 108° |
| 2026-05-05 18:26 | 33.34905 | -113.51851 | 20346 ft | 403 kts | 108° |
| 2026-05-05 18:26 | 33.34241 | -113.48604 | 20081 ft | 401 kts | 108° |
| 2026-05-05 18:26 | 33.33581 | -113.45368 | 19816 ft | 400 kts | 107° |
| 2026-05-05 18:26 | 33.32986 | -113.42115 | 19515 ft | 399 kts | 105° |
| 2026-05-05 18:27 | 33.32441 | -113.38875 | 19257 ft | 397 kts | 105° |
| 2026-05-05 18:27 | 33.31904 | -113.35640 | 19002 ft | 395 kts | 105° |
| 2026-05-05 18:27 | 33.31364 | -113.32431 | 18744 ft | 391 kts | 105° |
| 2026-05-05 18:27 | 33.30821 | -113.29259 | 18496 ft | 388 kts | 105° |
| 2026-05-05 18:28 | 33.29735 | -113.22998 | 17967 ft | 381 kts | 105° |
| 2026-05-05 18:28 | 33.29247 | -113.19896 | 17697 ft | 379 kts | 103° |
| 2026-05-05 18:28 | 33.28818 | -113.16798 | 17441 ft | 376 kts | 102° |
| 2026-05-05 18:29 | 33.28396 | -113.13725 | 17197 ft | 374 kts | 103° |
| 2026-05-05 18:29 | 33.27967 | -113.10684 | 16978 ft | 367 kts | 103° |
| 2026-05-05 18:29 | 33.27543 | -113.07707 | 16772 ft | 359 kts | 103° |
| 2026-05-05 18:29 | 33.27330 | -113.04787 | 16546 ft | 358 kts | 94° |
| 2026-05-05 18:30 | 33.27399 | -113.01819 | 16335 ft | 356 kts | 90° |
| 2026-05-05 18:30 | 33.27535 | -112.98860 | 16123 ft | 359 kts | 90° |
| 2026-05-05 18:30 | 33.27667 | -112.95857 | 15896 ft | 362 kts | 90° |
| 2026-05-05 18:30 | 33.27775 | -112.92846 | 15653 ft | 362 kts | 91° |
| 2026-05-05 18:31 | 33.27864 | -112.89846 | 15414 ft | 359 kts | 91° |
| 2026-05-05 18:31 | 33.27939 | -112.86881 | 15187 ft | 356 kts | 92° |
| 2026-05-05 18:31 | 33.28010 | -112.83949 | 14951 ft | 350 kts | 92° |
| 2026-05-05 18:31 | 33.28105 | -112.81065 | 14731 ft | 345 kts | 89° |
| 2026-05-05 18:32 | 33.28332 | -112.78239 | 14505 ft | 340 kts | 86° |
| 2026-05-05 18:32 | 33.28612 | -112.75453 | 14285 ft | 335 kts | 86° |
| 2026-05-05 18:32 | 33.28896 | -112.72709 | 14080 ft | 330 kts | 87° |
| 2026-05-05 18:32 | 33.29168 | -112.70027 | 13872 ft | 328 kts | 87° |
| 2026-05-05 18:33 | 33.29434 | -112.67331 | 13649 ft | 326 kts | 87° |
| 2026-05-05 18:33 | 33.29693 | -112.64643 | 13418 ft | 324 kts | 87° |
| 2026-05-05 18:33 | 33.29946 | -112.61974 | 13205 ft | 322 kts | 87° |
| 2026-05-05 18:33 | 33.30194 | -112.59323 | 12992 ft | 320 kts | 87° |
| 2026-05-05 18:34 | 33.30441 | -112.56676 | 12776 ft | 319 kts | 87° |
| 2026-05-05 18:34 | 33.30685 | -112.54041 | 12561 ft | 318 kts | 87° |
| 2026-05-05 18:34 | 33.30928 | -112.51413 | 12352 ft | 317 kts | 87° |
| 2026-05-05 18:34 | 33.31170 | -112.48793 | 12149 ft | 316 kts | 87° |
| 2026-05-05 18:35 | 33.31407 | -112.46218 | 11950 ft | 316 kts | 87° |
| 2026-05-05 18:35 | 33.31646 | -112.43609 | 11734 ft | 315 kts | 87° |
| 2026-05-05 18:35 | 33.31886 | -112.41000 | 11533 ft | 314 kts | 87° |
| 2026-05-05 18:35 | 33.32123 | -112.38402 | 11332 ft | 314 kts | 87° |
| 2026-05-05 18:36 | 33.32359 | -112.35814 | 11125 ft | 313 kts | 87° |
| 2026-05-05 18:36 | 33.32589 | -112.33232 | 10930 ft | 311 kts | 87° |
| 2026-05-05 18:36 | 33.32820 | -112.30693 | 10715 ft | 310 kts | 86° |
| 2026-05-05 18:36 | 33.33055 | -112.28143 | 10519 ft | 308 kts | 86° |
| 2026-05-05 18:37 | 33.33288 | -112.25607 | 10320 ft | 306 kts | 86° |
| 2026-05-05 18:37 | 33.33518 | -112.23094 | 10113 ft | 301 kts | 86° |
| 2026-05-05 18:37 | 33.33741 | -112.20634 | 9907 ft | 294 kts | 86° |
| 2026-05-05 18:37 | 33.33959 | -112.18235 | 9672 ft | 285 kts | 86° |
| 2026-05-05 18:38 | 33.34169 | -112.15914 | 9477 ft | 276 kts | 86° |
| 2026-05-05 18:38 | 33.34371 | -112.13675 | 9292 ft | 267 kts | 86° |
| 2026-05-05 18:38 | 33.34566 | -112.11504 | 9140 ft | 259 kts | 88° |
| 2026-05-05 18:38 | 33.34754 | -112.09387 | 9003 ft | 252 kts | 89° |
| 2026-05-05 18:39 | 33.34791 | -112.07329 | 8803 ft | 245 kts | 94° |
| 2026-05-05 18:39 | 33.34752 | -112.05301 | 8560 ft | 243 kts | 95° |
| 2026-05-05 18:39 | 33.34708 | -112.03280 | 8326 ft | 243 kts | 95° |
| 2026-05-05 18:39 | 33.34671 | -112.01251 | 8115 ft | 245 kts | 95° |
| 2026-05-05 18:40 | 33.34640 | -111.99213 | 7904 ft | 245 kts | 94° |
| 2026-05-05 18:40 | 33.34611 | -111.97182 | 7683 ft | 244 kts | 94° |
| 2026-05-05 18:40 | 33.34584 | -111.95176 | 7460 ft | 244 kts | 94° |
| 2026-05-05 18:40 | 33.34555 | -111.93125 | 7252 ft | 243 kts | 94° |
| 2026-05-05 18:41 | 33.34519 | -111.91132 | 7066 ft | 243 kts | 95° |
| 2026-05-05 18:41 | 33.34478 | -111.89105 | 6872 ft | 243 kts | 94° |
| 2026-05-05 18:41 | 33.34447 | -111.87088 | 6673 ft | 243 kts | 94° |
| 2026-05-05 18:41 | 33.34428 | -111.85067 | 6462 ft | 242 kts | 94° |
| 2026-05-05 18:42 | 33.34417 | -111.83735 | 6325 ft | 242 kts | 92° |
| 2026-05-05 18:42 | 33.34698 | -111.81750 | 6062 ft | 246 kts | 65° |
| 2026-05-05 18:42 | 33.35771 | -111.80191 | 5825 ft | 244 kts | 32° |
| 2026-05-05 18:42 | 33.37331 | -111.79502 | 5599 ft | 239 kts | 4° |
| 2026-05-05 18:43 | 33.39523 | -111.79374 | 5410 ft | 237 kts | 350° |
| 2026-05-05 18:43 | 33.40578 | -111.79736 | 5252 ft | 233 kts | 327° |
| 2026-05-05 18:43 | 33.41723 | -111.81027 | 5089 ft | 225 kts | 296° |
| 2026-05-05 18:43 | 33.42397 | -111.82700 | 5025 ft | 222 kts | 290° |
| 2026-05-05 18:44 | 33.42884 | -111.84435 | 4917 ft | 218 kts | 274° |
| 2026-05-05 18:44 | 33.42928 | -111.86236 | 4772 ft | 215 kts | 267° |
| 2026-05-05 18:44 | 33.42903 | -111.87952 | 4518 ft | 202 kts | 267° |
| 2026-05-05 18:44 | 33.42894 | -111.89603 | 4097 ft | 197 kts | 268° |
| 2026-05-05 18:45 | 33.42893 | -111.91220 | 3675 ft | 190 kts | 266° |
| 2026-05-05 18:45 | 33.42891 | -111.92792 | 3174 ft | 188 kts | 267° |
| 2026-05-05 18:45 | 33.42890 | -111.94332 | 2650 ft | 182 kts | 266° |
| 2026-05-05 18:45 | 33.42890 | -111.95800 | 2432 ft | 172 kts | 266° |
| 2026-05-05 18:46 | 33.42886 | -111.97233 | 2729 ft | 181 kts | 268° |
| 2026-05-05 18:46 | 33.42884 | -111.98727 | 3204 ft | 173 kts | 266° |
| 2026-05-05 18:46 | 33.42840 | -112.00130 | 3513 ft | 163 kts | 264° |
| 2026-05-05 18:46 | 33.42741 | -112.01417 | 3830 ft | 150 kts | 261° |
| 2026-05-05 18:47 | 33.42531 | -112.02610 | 3915 ft | 154 kts | 241° |
| 2026-05-05 18:47 | 33.41687 | -112.03417 | 4314 ft | 168 kts | 193° |
| 2026-05-05 18:47 | 33.40535 | -112.03018 | 4753 ft | 193 kts | 140° |
| 2026-05-05 18:47 | 33.39947 | -112.01656 | 4977 ft | 184 kts | 101° |
| 2026-05-05 18:48 | 33.39912 | -112.00044 | 4980 ft | 198 kts | 92° |
| 2026-05-05 18:48 | 33.39934 | -111.98402 | 4906 ft | 193 kts | 91° |
| 2026-05-05 18:48 | 33.40002 | -111.96809 | 4693 ft | 199 kts | 89° |
| 2026-05-05 18:48 | 33.40154 | -111.95108 | 4285 ft | 212 kts | 82° |
| 2026-05-05 18:49 | 33.40241 | -111.93416 | 4403 ft | 198 kts | 93° |
| 2026-05-05 18:49 | 33.40196 | -111.91796 | 4608 ft | 187 kts | 94° |
| 2026-05-05 18:49 | 33.40196 | -111.90249 | 4662 ft | 188 kts | 83° |
| 2026-05-05 18:49 | 33.40836 | -111.88922 | 4583 ft | 187 kts | 33° |
| 2026-05-05 18:50 | 33.42055 | -111.88516 | 4340 ft | 182 kts | 354° |
| 2026-05-05 18:50 | 33.43262 | -111.88878 | 3826 ft | 185 kts | 316° |
| 2026-05-05 18:50 | 33.43639 | -111.90114 | 3628 ft | 154 kts | 261° |
| 2026-05-05 18:50 | 33.43437 | -111.91376 | 3306 ft | 157 kts | 257° |
| 2026-05-05 18:51 | 33.43231 | -111.92682 | 2877 ft | 161 kts | 258° |
| 2026-05-05 18:51 | 33.43101 | -111.94004 | 2486 ft | 162 kts | 264° |
| 2026-05-05 18:51 | 33.43108 | -111.95358 | 2068 ft | 162 kts | 266° |
| 2026-05-05 18:51 | 33.43086 | -111.96668 | 1798 ft | 153 kts | 267° |
| 2026-05-05 18:52 | 33.43103 | -111.97950 | 1510 ft | 153 kts | 265° |
| 2026-05-05 18:52 | 33.43091 | -111.99228 | 1209 ft | 151 kts | 270° |
| 2026-05-05 18:52 | 33.43088 | -112.00446 | 1134 ft | 136 kts | 271° |
| 2026-05-05 18:52 | 33.43104 | -112.01338 | 1128 ft | 71 kts | 269° |
| 2026-05-05 18:53 | 33.43139 | -112.01558 | 1125 ft | 7 kts | 319° |
| 2026-05-05 18:53 | 33.43155 | -112.01568 | 1123 ft | 1 kts | 341° |
| 2026-05-05 18:53 | 33.43191 | -112.01568 | 1123 ft | 10 kts | 20° |
| 2026-05-05 18:53 | 33.43264 | -112.01501 | 1131 ft | 13 kts | 34° |
| 2026-05-05 18:54 | 33.43290 | -112.01363 | 1130 ft | 21 kts | 89° |
| 2026-05-05 18:54 | 33.43289 | -112.01183 | 1132 ft | 16 kts | 90° |
| 2026-05-05 18:54 | 33.43290 | -112.01040 | 1133 ft | 17 kts | 89° |
| 2026-05-05 18:54 | 33.43325 | -112.00949 | 1131 ft | 11 kts | 50° |
| 2026-05-05 18:55 | 33.43354 | -112.00936 | 1132 ft | 3 kts | 2° |
| 2026-05-05 18:55 | 33.43370 | -112.00936 | 1131 ft | 0 kts | 0° |